sensor_id;sensor_type;location;lat;lon;timestamp;pressure;altitude;pressure_sealevel;temperature;humidity
23281;BME280;11809;56.390;-3.266;2023-04-15T00:01:51;100908.88;;;16.98;53.91
23281;BME280;11809;56.390;-3.266;2023-04-15T00:04:19;100915.25;;;16.95;53.93
23281;BME280;11809;56.390;-3.266;2023-04-15T00:06:50;100914.59;;;16.92;53.80
23281;BME280;11809;56.390;-3.266;2023-04-15T00:09:19;100925.22;;;16.92;53.92
23281;BME280;11809;56.390;-3.266;2023-04-15T00:11:46;100922.56;;;16.92;53.85
23281;BME280;11809;56.390;-3.266;2023-04-15T00:14:14;100923.69;;;16.88;53.97
23281;BME280;11809;56.390;-3.266;2023-04-15T00:16:41;100927.31;;;16.87;53.98
23281;BME280;11809;56.390;-3.266;2023-04-15T00:19:08;100933.66;;;16.84;54.11
23281;BME280;11809;56.390;-3.266;2023-04-15T00:21:35;100939.06;;;16.83;53.91
23281;BME280;11809;56.390;-3.266;2023-04-15T00:24:02;100934.91;;;16.79;53.96
23281;BME280;11809;56.390;-3.266;2023-04-15T00:26:29;100935.66;;;16.81;53.78
23281;BME280;11809;56.390;-3.266;2023-04-15T00:28:56;100939.22;;;16.80;53.73
23281;BME280;11809;56.390;-3.266;2023-04-15T00:31:24;100948.91;;;16.81;53.65
23281;BME280;11809;56.390;-3.266;2023-04-15T00:33:51;100949.84;;;16.80;53.67
23281;BME280;11809;56.390;-3.266;2023-04-15T00:36:18;100948.16;;;16.79;53.64
23281;BME280;11809;56.390;-3.266;2023-04-15T00:38:45;100952.91;;;16.74;53.83
23281;BME280;11809;56.390;-3.266;2023-04-15T00:41:13;100963.50;;;16.74;53.90
23281;BME280;11809;56.390;-3.266;2023-04-15T00:43:40;100962.66;;;16.73;53.81
23281;BME280;11809;56.390;-3.266;2023-04-15T00:46:08;100971.66;;;16.71;53.59
23281;BME280;11809;56.390;-3.266;2023-04-15T00:48:36;100974.31;;;16.71;53.85
23281;BME280;11809;56.390;-3.266;2023-04-15T00:51:04;100970.03;;;16.68;53.94
23281;BME280;11809;56.390;-3.266;2023-04-15T00:53:32;100975.34;;;16.68;53.92
23281;BME280;11809;56.390;-3.266;2023-04-15T00:55:59;100978.06;;;16.67;53.74
23281;BME280;11809;56.390;-3.266;2023-04-15T00:58:26;100987.75;;;16.68;53.79
23281;BME280;11809;56.390;-3.266;2023-04-15T01:00:55;100986.16;;;16.65;53.98
23281;BME280;11809;56.390;-3.266;2023-04-15T01:03:22;100995.03;;;16.64;53.91
23281;BME280;11809;56.390;-3.266;2023-04-15T01:05:52;100991.63;;;16.62;53.98
23281;BME280;11809;56.390;-3.266;2023-04-15T01:08:30;100996.06;;;16.62;54.14
23281;BME280;11809;56.390;-3.266;2023-04-15T01:10:59;100999.88;;;16.58;53.89
23281;BME280;11809;56.390;-3.266;2023-04-15T01:13:28;100998.16;;;16.57;53.99
23281;BME280;11809;56.390;-3.266;2023-04-15T01:15:55;100998.16;;;16.57;53.98
23281;BME280;11809;56.390;-3.266;2023-04-15T01:18:22;100998.25;;;16.55;54.04
23281;BME280;11809;56.390;-3.266;2023-04-15T01:20:50;100998.47;;;16.51;54.03
23281;BME280;11809;56.390;-3.266;2023-04-15T01:23:17;101006.44;;;16.51;54.19
23281;BME280;11809;56.390;-3.266;2023-04-15T01:25:44;101001.31;;;16.48;54.15
23281;BME280;11809;56.390;-3.266;2023-04-15T01:28:12;101012.78;;;16.48;54.21
23281;BME280;11809;56.390;-3.266;2023-04-15T01:30:39;101015.59;;;16.45;54.12
23281;BME280;11809;56.390;-3.266;2023-04-15T01:33:06;101020.09;;;16.45;54.25
23281;BME280;11809;56.390;-3.266;2023-04-15T01:35:33;101024.59;;;16.43;54.34
23281;BME280;11809;56.390;-3.266;2023-04-15T01:38:08;101014.94;;;16.42;54.34
23281;BME280;11809;56.390;-3.266;2023-04-15T01:40:35;101023.75;;;16.42;54.31
23281;BME280;11809;56.390;-3.266;2023-04-15T01:43:02;101031.78;;;16.41;54.32
23281;BME280;11809;56.390;-3.266;2023-04-15T01:45:29;101039.00;;;16.38;54.42
23281;BME280;11809;56.390;-3.266;2023-04-15T01:47:56;101039.06;;;16.37;54.26
23281;BME280;11809;56.390;-3.266;2023-04-15T01:50:23;101046.09;;;16.38;54.30
23281;BME280;11809;56.390;-3.266;2023-04-15T01:52:54;101047.13;;;16.35;54.44
23281;BME280;11809;56.390;-3.266;2023-04-15T01:55:21;101049.03;;;16.33;54.34
23281;BME280;11809;56.390;-3.266;2023-04-15T01:57:48;101055.16;;;16.34;54.48
23281;BME280;11809;56.390;-3.266;2023-04-15T02:00:15;101056.13;;;16.33;54.33
23281;BME280;11809;56.390;-3.266;2023-04-15T02:02:43;101060.56;;;16.32;54.32
23281;BME280;11809;56.390;-3.266;2023-04-15T02:05:10;101062.44;;;16.30;54.55
23281;BME280;11809;56.390;-3.266;2023-04-15T02:07:37;101068.69;;;16.29;54.50
23281;BME280;11809;56.390;-3.266;2023-04-15T02:10:04;101067.00;;;16.28;54.46
23281;BME280;11809;56.390;-3.266;2023-04-15T02:12:32;101075.88;;;16.27;54.60
23281;BME280;11809;56.390;-3.266;2023-04-15T02:14:58;101083.09;;;16.25;54.56
23281;BME280;11809;56.390;-3.266;2023-04-15T02:17:26;101088.28;;;16.27;54.67
23281;BME280;11809;56.390;-3.266;2023-04-15T02:19:54;101086.66;;;16.24;54.69
23281;BME280;11809;56.390;-3.266;2023-04-15T02:22:22;101091.09;;;16.24;54.66
23281;BME280;11809;56.390;-3.266;2023-04-15T02:24:49;101085.81;;;16.24;54.62
23281;BME280;11809;56.390;-3.266;2023-04-15T02:27:16;101085.03;;;16.22;54.64
23281;BME280;11809;56.390;-3.266;2023-04-15T02:29:44;101084.19;;;16.21;54.74
23281;BME280;11809;56.390;-3.266;2023-04-15T02:32:12;101082.50;;;16.20;54.72
23281;BME280;11809;56.390;-3.266;2023-04-15T02:34:39;101088.72;;;16.19;54.58
23281;BME280;11809;56.390;-3.266;2023-04-15T02:37:09;101092.31;;;16.18;54.71
23281;BME280;11809;56.390;-3.266;2023-04-15T02:39:36;101088.72;;;16.19;54.69
23281;BME280;11809;56.390;-3.266;2023-04-15T02:42:03;101095.91;;;16.17;54.64
23281;BME280;11809;56.390;-3.266;2023-04-15T02:44:31;101090.63;;;16.17;54.83
23281;BME280;11809;56.390;-3.266;2023-04-15T02:46:59;101090.69;;;16.16;54.64
23281;BME280;11809;56.390;-3.266;2023-04-15T02:49:26;101104.81;;;16.16;54.83
23281;BME280;11809;56.390;-3.266;2023-04-15T02:51:56;101101.38;;;16.14;54.67
23281;BME280;11809;56.390;-3.266;2023-04-15T02:54:24;101112.00;;;16.14;54.72
23281;BME280;11809;56.390;-3.266;2023-04-15T02:56:51;101118.22;;;16.13;54.78
23281;BME280;11809;56.390;-3.266;2023-04-15T02:59:21;101122.59;;;16.14;54.77
23281;BME280;11809;56.390;-3.266;2023-04-15T03:01:48;101133.22;;;16.14;54.79
23281;BME280;11809;56.390;-3.266;2023-04-15T03:04:15;101143.81;;;16.14;54.78
23281;BME280;11809;56.390;-3.266;2023-04-15T03:06:42;101150.91;;;16.14;54.69
23281;BME280;11809;56.390;-3.266;2023-04-15T03:09:10;101158.00;;;16.13;54.93
23281;BME280;11809;56.390;-3.266;2023-04-15T03:11:37;101161.63;;;16.12;54.93
23281;BME280;11809;56.390;-3.266;2023-04-15T03:14:06;101173.03;;;16.13;54.87
23281;BME280;11809;56.390;-3.266;2023-04-15T03:16:33;101184.50;;;16.13;54.93
23281;BME280;11809;56.390;-3.266;2023-04-15T03:19:00;101190.84;;;16.11;54.68
23281;BME280;11809;56.390;-3.266;2023-04-15T03:21:27;101191.59;;;16.13;54.91
23281;BME280;11809;56.390;-3.266;2023-04-15T03:23:54;101191.69;;;16.11;54.86
23281;BME280;11809;56.390;-3.266;2023-04-15T03:26:29;101181.09;;;16.11;54.89
23281;BME280;11809;56.390;-3.266;2023-04-15T03:28:57;101185.69;;;16.08;54.78
23281;BME280;11809;56.390;-3.266;2023-04-15T03:31:27;101196.16;;;16.11;54.85
23281;BME280;11809;56.390;-3.266;2023-04-15T03:33:54;101195.28;;;16.10;54.95
23281;BME280;11809;56.390;-3.266;2023-04-15T03:36:21;101205.88;;;16.10;54.93
23281;BME280;11809;56.390;-3.266;2023-04-15T03:38:48;101219.16;;;16.10;54.79
23281;BME280;11809;56.390;-3.266;2023-04-15T03:41:16;101220.97;;;16.10;54.87
23281;BME280;11809;56.390;-3.266;2023-04-15T03:43:43;101211.19;;;16.10;54.99
23281;BME280;11809;56.390;-3.266;2023-04-15T03:46:10;101210.38;;;16.10;54.87
23281;BME280;11809;56.390;-3.266;2023-04-15T03:48:37;101215.66;;;16.10;54.85
23281;BME280;11809;56.390;-3.266;2023-04-15T03:51:04;101220.97;;;16.10;54.94
23281;BME280;11809;56.390;-3.266;2023-04-15T03:53:31;101236.00;;;16.09;54.91
23281;BME280;11809;56.390;-3.266;2023-04-15T03:55:58;101230.72;;;16.09;55.02
23281;BME280;11809;56.390;-3.266;2023-04-15T03:58:25;101239.53;;;16.10;55.02
23281;BME280;11809;56.390;-3.266;2023-04-15T04:00:52;101243.97;;;16.09;55.03
23281;BME280;11809;56.390;-3.266;2023-04-15T04:03:20;101246.69;;;16.08;54.99
23281;BME280;11809;56.390;-3.266;2023-04-15T04:05:48;101251.94;;;16.09;54.87
23281;BME280;11809;56.390;-3.266;2023-04-15T04:08:15;101250.19;;;16.08;54.96
23281;BME280;11809;56.390;-3.266;2023-04-15T04:10:42;101247.56;;;16.08;54.89
23281;BME280;11809;56.390;-3.266;2023-04-15T04:13:09;101243.19;;;16.07;54.88
23281;BME280;11809;56.390;-3.266;2023-04-15T04:15:36;101250.19;;;16.08;54.92
23281;BME280;11809;56.390;-3.266;2023-04-15T04:18:03;101253.72;;;16.09;54.99
23281;BME280;11809;56.390;-3.266;2023-04-15T04:20:30;101255.50;;;16.08;54.84
23281;BME280;11809;56.390;-3.266;2023-04-15T04:22:57;101246.78;;;16.06;54.80
23281;BME280;11809;56.390;-3.266;2023-04-15T04:25:24;101255.50;;;16.08;54.83
23281;BME280;11809;56.390;-3.266;2023-04-15T04:27:51;101256.38;;;16.09;54.97
23281;BME280;11809;56.390;-3.266;2023-04-15T04:30:19;101257.28;;;16.08;55.23
23281;BME280;11809;56.390;-3.266;2023-04-15T04:32:45;101255.50;;;16.08;54.78
23281;BME280;11809;56.390;-3.266;2023-04-15T04:35:12;101261.66;;;16.09;54.89
23281;BME280;11809;56.390;-3.266;2023-04-15T04:37:39;101268.75;;;16.08;54.91
23281;BME280;11809;56.390;-3.266;2023-04-15T04:40:07;101266.09;;;16.08;54.76
23281;BME280;11809;56.390;-3.266;2023-04-15T04:42:35;101269.72;;;16.07;55.01
23281;BME280;11809;56.390;-3.266;2023-04-15T04:45:05;101279.38;;;16.08;54.97
23281;BME280;11809;56.390;-3.266;2023-04-15T04:47:33;101281.16;;;16.08;55.00
23281;BME280;11809;56.390;-3.266;2023-04-15T04:50:00;101281.16;;;16.08;54.91
23281;BME280;11809;56.390;-3.266;2023-04-15T04:52:27;101280.38;;;16.06;54.80
23281;BME280;11809;56.390;-3.266;2023-04-15T04:54:53;101290.94;;;16.07;54.84
23281;BME280;11809;56.390;-3.266;2023-04-15T04:57:21;101283.91;;;16.06;54.73
23281;BME280;11809;56.390;-3.266;2023-04-15T04:59:48;101282.13;;;16.07;54.81
23281;BME280;11809;56.390;-3.266;2023-04-15T05:02:15;101285.63;;;16.07;55.10
23281;BME280;11809;56.390;-3.266;2023-04-15T05:04:42;101285.69;;;16.06;55.09
23281;BME280;11809;56.390;-3.266;2023-04-15T05:07:09;101279.63;;;16.04;54.50
23281;BME280;11809;56.390;-3.266;2023-04-15T05:09:36;101288.50;;;16.03;54.55
23281;BME280;11809;56.390;-3.266;2023-04-15T05:12:03;101300.00;;;15.69;52.48
23281;BME280;11809;56.390;-3.266;2023-04-15T05:14:31;101307.84;;;15.17;51.47
23281;BME280;11809;56.390;-3.266;2023-04-15T05:16:58;101318.91;;;14.90;51.34
23281;BME280;11809;56.390;-3.266;2023-04-15T05:19:25;101324.97;;;15.10;52.49
23281;BME280;11809;56.390;-3.266;2023-04-15T05:21:52;101320.13;;;15.37;52.72
23281;BME280;11809;56.390;-3.266;2023-04-15T05:24:19;101321.97;;;15.54;53.19
23281;BME280;11809;56.390;-3.266;2023-04-15T05:26:49;101331.94;;;15.66;53.13
23281;BME280;11809;56.390;-3.266;2023-04-15T05:29:16;101339.50;;;15.73;53.48
23281;BME280;11809;56.390;-3.266;2023-04-15T05:31:43;101352.53;;;15.78;53.15
23281;BME280;11809;56.390;-3.266;2023-04-15T05:34:10;101355.81;;;15.83;53.43
23281;BME280;11809;56.390;-3.266;2023-04-15T05:36:38;101356.59;;;15.85;53.53
23281;BME280;11809;56.390;-3.266;2023-04-15T05:39:05;101359.09;;;15.88;53.75
23281;BME280;11809;56.390;-3.266;2023-04-15T05:41:32;101358.06;;;15.91;54.09
23281;BME280;11809;56.390;-3.266;2023-04-15T05:44:00;101364.28;;;15.90;54.24
23281;BME280;11809;56.390;-3.266;2023-04-15T05:46:27;101372.41;;;15.87;54.72
23281;BME280;11809;56.390;-3.266;2023-04-15T05:48:54;101370.56;;;15.89;54.65
23281;BME280;11809;56.390;-3.266;2023-04-15T05:51:22;101375.66;;;15.92;54.52
23281;BME280;11809;56.390;-3.266;2023-04-15T05:53:49;101380.13;;;15.91;54.71
23281;BME280;11809;56.390;-3.266;2023-04-15T05:56:16;101383.72;;;15.90;54.56
23281;BME280;11809;56.390;-3.266;2023-04-15T05:58:43;101396.25;;;15.69;52.66
23281;BME280;11809;56.390;-3.266;2023-04-15T06:01:10;101399.34;;;15.60;52.53
23281;BME280;11809;56.390;-3.266;2023-04-15T06:03:37;101402.28;;;15.54;53.02
23281;BME280;11809;56.390;-3.266;2023-04-15T06:06:05;101416.63;;;15.50;53.30
23281;BME280;11809;56.390;-3.266;2023-04-15T06:08:33;101425.56;;;15.48;53.27
23281;BME280;11809;56.390;-3.266;2023-04-15T06:11:00;101428.34;;;15.45;53.12
23281;BME280;11809;56.390;-3.266;2023-04-15T06:13:27;101431.06;;;15.43;53.24
23281;BME280;11809;56.390;-3.266;2023-04-15T06:15:55;101428.41;;;15.43;52.79
23281;BME280;11809;56.390;-3.266;2023-04-15T06:18:22;101437.50;;;15.38;52.09
23281;BME280;11809;56.390;-3.266;2023-04-15T06:20:49;101432.22;;;15.00;50.87
23281;BME280;11809;56.390;-3.266;2023-04-15T06:23:16;101446.78;;;15.28;52.28
23281;BME280;11809;56.390;-3.266;2023-04-15T06:25:43;101440.69;;;15.46;52.82
23281;BME280;11809;56.390;-3.266;2023-04-15T06:28:10;101447.16;;;15.57;53.03
23281;BME280;11809;56.390;-3.266;2023-04-15T06:30:37;101452.09;;;15.65;53.15
23281;BME280;11809;56.390;-3.266;2023-04-15T06:33:04;101450.13;;;15.70;53.42
23281;BME280;11809;56.390;-3.266;2023-04-15T06:35:32;101462.25;;;15.74;53.53
23281;BME280;11809;56.390;-3.266;2023-04-15T06:37:59;101459.53;;;15.75;53.99
23281;BME280;11809;56.390;-3.266;2023-04-15T06:40:26;101455.91;;;15.78;54.59
23281;BME280;11809;56.390;-3.266;2023-04-15T06:42:54;101456.69;;;15.80;54.41
23281;BME280;11809;56.390;-3.266;2023-04-15T06:45:21;101460.97;;;15.83;54.60
23281;BME280;11809;56.390;-3.266;2023-04-15T06:47:48;101467.28;;;15.80;54.50
23281;BME280;11809;56.390;-3.266;2023-04-15T06:50:16;101466.19;;;15.84;54.80
23281;BME280;11809;56.390;-3.266;2023-04-15T06:52:43;101478.22;;;15.91;55.07
23281;BME280;11809;56.390;-3.266;2023-04-15T06:55:10;101480.78;;;15.93;55.15
23281;BME280;11809;56.390;-3.266;2023-04-15T06:57:37;101482.38;;;15.97;55.17
23281;BME280;11809;56.390;-3.266;2023-04-15T07:00:04;101484.69;;;16.03;55.53
23281;BME280;11809;56.390;-3.266;2023-04-15T07:02:33;101492.44;;;16.07;55.84
23281;BME280;11809;56.390;-3.266;2023-04-15T07:05:00;101489.69;;;16.09;55.62
23281;BME280;11809;56.390;-3.266;2023-04-15T07:07:27;101495.63;;;16.14;56.03
23281;BME280;11809;56.390;-3.266;2023-04-15T07:09:54;101500.69;;;16.18;56.14
23281;BME280;11809;56.390;-3.266;2023-04-15T07:12:21;101494.38;;;16.21;56.04
23281;BME280;11809;56.390;-3.266;2023-04-15T07:14:48;101499.63;;;16.22;56.18
23281;BME280;11809;56.390;-3.266;2023-04-15T07:17:15;101488.94;;;16.24;56.11
23281;BME280;11809;56.390;-3.266;2023-04-15T07:19:43;101503.69;;;16.29;56.67
23281;BME280;11809;56.390;-3.266;2023-04-15T07:22:11;101506.09;;;16.34;56.40
23281;BME280;11809;56.390;-3.266;2023-04-15T07:24:39;101514.75;;;16.37;56.32
23281;BME280;11809;56.390;-3.266;2023-04-15T07:27:05;101510.19;;;16.41;56.20
23281;BME280;11809;56.390;-3.266;2023-04-15T07:29:33;101514.38;;;16.45;56.34
23281;BME280;11809;56.390;-3.266;2023-04-15T07:32:00;101513.34;;;16.48;56.34
23281;BME280;11809;56.390;-3.266;2023-04-15T07:34:27;101507.13;;;16.49;56.12
23281;BME280;11809;56.390;-3.266;2023-04-15T07:36:56;101510.56;;;16.51;55.94
23281;BME280;11809;56.390;-3.266;2023-04-15T07:39:23;101517.38;;;16.56;55.77
23281;BME280;11809;56.390;-3.266;2023-04-15T07:41:51;101522.69;;;16.56;55.70
23281;BME280;11809;56.390;-3.266;2023-04-15T07:44:18;101526.06;;;16.60;55.74
23281;BME280;11809;56.390;-3.266;2023-04-15T07:46:46;101528.63;;;16.61;55.84
23281;BME280;11809;56.390;-3.266;2023-04-15T07:49:13;101536.38;;;16.66;55.71
23281;BME280;11809;56.390;-3.266;2023-04-15T07:51:41;101538.00;;;16.68;55.65
23281;BME280;11809;56.390;-3.266;2023-04-15T07:54:09;101533.47;;;16.70;55.60
23281;BME280;11809;56.390;-3.266;2023-04-15T07:56:36;101542.16;;;16.74;55.52
23281;BME280;11809;56.390;-3.266;2023-04-15T07:59:04;101547.28;;;16.77;55.55
23281;BME280;11809;56.390;-3.266;2023-04-15T08:01:32;101552.44;;;16.80;55.42
23281;BME280;11809;56.390;-3.266;2023-04-15T08:03:59;101560.16;;;16.84;55.46
23281;BME280;11809;56.390;-3.266;2023-04-15T08:06:26;101564.47;;;16.87;55.40
23281;BME280;11809;56.390;-3.266;2023-04-15T08:08:54;101575.75;;;16.90;55.49
23281;BME280;11809;56.390;-3.266;2023-04-15T08:11:22;101580.22;;;16.90;55.39
23281;BME280;11809;56.390;-3.266;2023-04-15T08:13:51;101585.53;;;16.90;55.38
23281;BME280;11809;56.390;-3.266;2023-04-15T08:18:49;101598.66;;;16.76;53.87
23281;BME280;11809;56.390;-3.266;2023-04-15T08:21:18;101594.50;;;16.70;53.03
23281;BME280;11809;56.390;-3.266;2023-04-15T08:23:47;101592.19;;;16.81;53.92
23281;BME280;11809;56.390;-3.266;2023-04-15T08:26:16;101600.38;;;16.94;54.10
23281;BME280;11809;56.390;-3.266;2023-04-15T08:28:44;101612.31;;;17.03;54.15
23281;BME280;11809;56.390;-3.266;2023-04-15T08:31:13;101610.28;;;17.08;54.20
23281;BME280;11809;56.390;-3.266;2023-04-15T08:33:41;101613.88;;;17.07;54.42
23281;BME280;11809;56.390;-3.266;2023-04-15T08:36:08;101612.94;;;17.08;54.36
23281;BME280;11809;56.390;-3.266;2023-04-15T08:38:35;101614.72;;;17.07;54.41
23281;BME280;11809;56.390;-3.266;2023-04-15T08:41:08;101616.47;;;17.08;54.50
23281;BME280;11809;56.390;-3.266;2023-04-15T08:43:46;101619.13;;;17.08;54.42
23281;BME280;11809;56.390;-3.266;2023-04-15T08:46:15;101625.22;;;17.10;54.42
23281;BME280;11809;56.390;-3.266;2023-04-15T08:48:43;101630.38;;;17.13;54.47
23281;BME280;11809;56.390;-3.266;2023-04-15T08:51:12;101629.41;;;17.14;54.63
23281;BME280;11809;56.390;-3.266;2023-04-15T08:53:45;101631.91;;;17.17;54.50
23281;BME280;11809;56.390;-3.266;2023-04-15T08:56:14;101630.88;;;17.20;54.54
23281;BME280;11809;56.390;-3.266;2023-04-15T08:58:43;101635.19;;;17.22;54.36
23281;BME280;11809;56.390;-3.266;2023-04-15T09:01:11;101636.00;;;17.24;54.27
23281;BME280;11809;56.390;-3.266;2023-04-15T09:03:39;101640.34;;;17.25;54.38
23281;BME280;11809;56.390;-3.266;2023-04-15T09:06:06;101642.06;;;17.26;54.37
23281;BME280;11809;56.390;-3.266;2023-04-15T09:08:34;101640.19;;;17.28;54.32
23281;BME280;11809;56.390;-3.266;2023-04-15T09:11:02;101640.09;;;17.30;54.29
23281;BME280;11809;56.390;-3.266;2023-04-15T09:13:29;101653.31;;;17.31;54.05
23281;BME280;11809;56.390;-3.266;2023-04-15T09:15:57;101654.09;;;17.33;54.18
23281;BME280;11809;56.390;-3.266;2023-04-15T09:18:32;101654.09;;;17.33;54.06
23281;BME280;11809;56.390;-3.266;2023-04-15T09:23:39;101655.19;;;17.29;53.96
23281;BME280;11809;56.390;-3.266;2023-04-15T09:26:07;101666.19;;;17.39;54.02
23281;BME280;11809;56.390;-3.266;2023-04-15T09:28:41;101654.66;;;17.40;54.08
23281;BME280;11809;56.390;-3.266;2023-04-15T09:31:08;101653.63;;;17.42;54.52
23281;BME280;11809;56.390;-3.266;2023-04-15T09:33:53;101653.47;;;17.28;54.00
23281;BME280;11809;56.390;-3.266;2023-04-15T09:36:21;101650.97;;;17.25;54.21
23281;BME280;11809;56.390;-3.266;2023-04-15T09:38:55;101650.03;;;17.26;54.41
23281;BME280;11809;56.390;-3.266;2023-04-15T09:41:24;101647.59;;;17.39;54.74
23281;BME280;11809;56.390;-3.266;2023-04-15T09:43:52;101656.03;;;17.47;54.72
23281;BME280;11809;56.390;-3.266;2023-04-15T09:46:19;101653.28;;;17.48;54.55
23281;BME280;11809;56.390;-3.266;2023-04-15T09:49:06;101653.13;;;17.51;54.50
23281;BME280;11809;56.390;-3.266;2023-04-15T09:51:34;101656.59;;;17.53;54.52
23281;BME280;11809;56.390;-3.266;2023-04-15T09:54:01;101655.66;;;17.54;54.45
23281;BME280;11809;56.390;-3.266;2023-04-15T09:56:36;101666.22;;;17.56;54.51
23281;BME280;11809;56.390;-3.266;2023-04-15T09:59:04;101660.81;;;17.58;54.52
23281;BME280;11809;56.390;-3.266;2023-04-15T10:01:31;101669.56;;;17.60;54.17
23281;BME280;11809;56.390;-3.266;2023-04-15T10:04:04;101667.06;;;17.56;54.61
23281;BME280;11809;56.390;-3.266;2023-04-15T10:06:32;101667.91;;;17.57;54.61
23281;BME280;11809;56.390;-3.266;2023-04-15T10:09:00;101668.78;;;17.58;54.70
23281;BME280;11809;56.390;-3.266;2023-04-15T10:11:28;101674.72;;;17.63;55.00
23281;BME280;11809;56.390;-3.266;2023-04-15T10:13:57;101675.47;;;17.65;54.83
23281;BME280;11809;56.390;-3.266;2023-04-15T10:16:26;101673.78;;;17.64;54.74
23281;BME280;11809;56.390;-3.266;2023-04-15T10:18:57;101676.44;;;17.64;54.84
23281;BME280;11809;56.390;-3.266;2023-04-15T10:21:27;101670.16;;;17.65;54.87
23281;BME280;11809;56.390;-3.266;2023-04-15T10:23:57;101673.78;;;17.64;54.67
23281;BME280;11809;56.390;-3.266;2023-04-15T10:26:25;101679.88;;;17.66;54.87
23281;BME280;11809;56.390;-3.266;2023-04-15T10:28:53;101684.31;;;17.65;54.90
23281;BME280;11809;56.390;-3.266;2023-04-15T10:31:20;101683.41;;;17.66;55.10
23281;BME280;11809;56.390;-3.266;2023-04-15T10:33:48;101687.13;;;17.62;55.15
23281;BME280;11809;56.390;-3.266;2023-04-15T10:36:18;101689.28;;;17.55;54.98
23281;BME280;11809;56.390;-3.266;2023-04-15T10:38:45;101683.88;;;17.57;55.14
23281;BME280;11809;56.390;-3.266;2023-04-15T10:41:19;101688.25;;;17.58;55.03
23281;BME280;11809;56.390;-3.266;2023-04-15T10:43:54;101692.63;;;17.59;55.09
23281;BME280;11809;56.390;-3.266;2023-04-15T10:46:42;101697.38;;;17.52;55.28
23281;BME280;11809;56.390;-3.266;2023-04-15T10:49:16;101684.19;;;17.51;55.13
23281;BME280;11809;56.390;-3.266;2023-04-15T10:52:00;101686.75;;;17.52;55.12
23281;BME280;11809;56.390;-3.266;2023-04-15T10:59:32;101688.31;;;17.56;54.84
23281;BME280;11809;56.390;-3.266;2023-04-15T11:02:04;101682.84;;;17.60;54.58
23281;BME280;11809;56.390;-3.266;2023-04-15T11:04:57;101696.94;;;17.62;54.88
23281;BME280;11809;56.390;-3.266;2023-04-15T11:12:40;101689.94;;;17.59;54.78
23281;BME280;11809;56.390;-3.266;2023-04-15T11:15:32;101703.34;;;17.40;53.03
23281;BME280;11809;56.390;-3.266;2023-04-15T11:18:19;101699.03;;;17.21;51.58
23281;BME280;11809;56.390;-3.266;2023-04-15T11:20:50;101700.28;;;17.14;51.28
23281;BME280;11809;56.390;-3.266;2023-04-15T11:23:19;101692.06;;;17.18;51.97
23281;BME280;11809;56.390;-3.266;2023-04-15T11:25:56;101689.91;;;17.26;53.14
23281;BME280;11809;56.390;-3.266;2023-04-15T11:28:26;101686.94;;;17.32;53.38
23281;BME280;11809;56.390;-3.266;2023-04-15T11:30:54;101684.03;;;17.37;54.03
23281;BME280;11809;56.390;-3.266;2023-04-15T11:33:22;101685.25;;;17.47;54.29
23281;BME280;11809;56.390;-3.266;2023-04-15T11:35:51;101687.47;;;17.56;54.33
23281;BME280;11809;56.390;-3.266;2023-04-15T11:38:20;101688.31;;;17.56;54.84
23281;BME280;11809;56.390;-3.266;2023-04-15T11:40:49;101683.88;;;17.57;54.65
23281;BME280;11809;56.390;-3.266;2023-04-15T11:43:20;101690.91;;;17.58;54.70
23281;BME280;11809;56.390;-3.266;2023-04-15T11:45:56;101689.13;;;17.59;54.63
23281;BME280;11809;56.390;-3.266;2023-04-15T11:48:34;101692.38;;;17.64;54.54
23281;BME280;11809;56.390;-3.266;2023-04-15T11:51:06;101689.56;;;17.67;54.48
23281;BME280;11809;56.390;-3.266;2023-04-15T11:53:47;101701.13;;;17.66;54.66
23281;BME280;11809;56.390;-3.266;2023-04-15T11:56:20;101704.81;;;17.63;54.64
23281;BME280;11809;56.390;-3.266;2023-04-15T11:58:51;101693.06;;;17.67;54.62
23281;BME280;11809;56.390;-3.266;2023-04-15T12:01:19;101697.03;;;17.76;54.54
23281;BME280;11809;56.390;-3.266;2023-04-15T12:03:47;101702.19;;;17.79;54.46
23281;BME280;11809;56.390;-3.266;2023-04-15T12:06:23;101701.94;;;17.83;54.29
23281;BME280;11809;56.390;-3.266;2023-04-15T12:14:06;101712.84;;;17.79;54.79
23281;BME280;11809;56.390;-3.266;2023-04-15T12:16:35;101710.34;;;17.76;55.07
23281;BME280;11809;56.390;-3.266;2023-04-15T12:19:38;101715.34;;;17.82;54.86
23281;BME280;11809;56.390;-3.266;2023-04-15T12:22:11;101701.63;;;17.89;54.74
23281;BME280;11809;56.390;-3.266;2023-04-15T12:24:40;101709.59;;;17.89;54.71
23281;BME280;11809;56.390;-3.266;2023-04-15T12:27:11;101707.81;;;17.90;55.17
23281;BME280;11809;56.390;-3.266;2023-04-15T12:29:40;101704.75;;;17.97;54.97
23281;BME280;11809;56.390;-3.266;2023-04-15T12:32:13;101708.41;;;17.95;54.92
23281;BME280;11809;56.390;-3.266;2023-04-15T12:34:45;101707.34;;;17.99;55.20
23281;BME280;11809;56.390;-3.266;2023-04-15T12:37:17;101717.97;;;17.99;54.97
23281;BME280;11809;56.390;-3.266;2023-04-15T12:39:46;101716.25;;;17.98;55.25
23281;BME280;11809;56.390;-3.266;2023-04-15T12:42:16;101716.56;;;17.92;55.21
23281;BME280;11809;56.390;-3.266;2023-04-15T12:44:44;101719.16;;;17.93;54.97
23281;BME280;11809;56.390;-3.266;2023-04-15T12:47:12;101719.06;;;17.95;54.80
23281;BME280;11809;56.390;-3.266;2023-04-15T12:49:39;101722.50;;;17.97;54.76
23281;BME280;11809;56.390;-3.266;2023-04-15T12:52:07;101717.09;;;17.98;54.74
23281;BME280;11809;56.390;-3.266;2023-04-15T12:54:34;101716.25;;;17.98;54.76
23281;BME280;11809;56.390;-3.266;2023-04-15T12:57:02;101711.69;;;18.00;54.99
23281;BME280;11809;56.390;-3.266;2023-04-15T12:59:32;101714.34;;;18.00;54.85
23281;BME280;11809;56.390;-3.266;2023-04-15T13:01:59;101704.28;;;17.89;51.87
23281;BME280;11809;56.390;-3.266;2023-04-15T13:04:29;101709.94;;;17.83;50.56
23281;BME280;11809;56.390;-3.266;2023-04-15T13:06:57;101701.28;;;17.80;50.55
23281;BME280;11809;56.390;-3.266;2023-04-15T13:09:24;101696.88;;;17.79;50.55